Redwood Falls, MN (56283)

5:50 PM CDT on April 24, 2018 (GMT -0500)
Beaver Falls TWP | | Change Station
Active Advisory: Flood Warning

Elev 1007 ft 44.58 °N, 95.04 °W | Updated 4 minutes ago

Overcast
Overcast
50.9 °F
Feels Like 50.9 °F
N
4.4
Wind Variable Wind from NNW
Gusts 6.5 mph

Today
High -- | Low -- °F
--% Chance of Precip.
Yesterday
High -- | Low -- °F
Precip. -- in
Pressure 30.26 in
Visibility 10.0 miles
Clouds Scattered Clouds 1500 ft
Overcast 6000 ft
Dew Point 38 °F
Humidity 65%
Rainfall 0.00 in
Snow Depth Not available.
6:21 AM 8:16 PM
Waxing Gibbous, 72% visible
METAR KRWF 242153Z AUTO 34013G18KT 10SM SCT015 OVC060 09/06 A3024 RMK AO2 SLP246 T00940056
Pressure 30.26 in
Visibility 10.0 miles
Clouds Scattered Clouds 1500 ft
Overcast 6000 ft
Dew Point 38 °F
Humidity 65%
Rainfall 0.00 in
Snow Depth Not available.
6:21 AM 8:16 PM
Waxing Gibbous, 72% visible
METAR KRWF 242153Z AUTO 34013G18KT 10SM SCT015 OVC060 09/06 A3024 RMK AO2 SLP246 T00940056

Get Your Daily Forecast Email!

Thanks for signing up!

Be on the lookout for a verification email in your inbox.

You'll start receiving severe weather alerts in your inbox..

×

10-Day Weather Forecast

Almanac

Astronomy

Apr. 24, 2018 Rise Set
Actual Time
Civil Twilight
Nautical Twilight
Astronomical Twilight
Moon
Length of Visible Light
Length of Day
Tomorrow will be .
, % of the Moon is Illuminated

Today's Extremes

State Highs State Lows

Community

WunderPhotos

Category 6

Welcome to Category 6. This is the collective home for Weather Underground's featured writeups by Dr. Jeff Masters (right), Bob Henson (left), Chris Burt, and other regular contributors.

Nearby

Air Quality

  Air Quality AQ Index Pollutant
Not available.

Snow Depth

Station Depth Elevation

Earthquake Activity

City Distance Mag. Time & Date
Minimum magnitude displayed is 2.5.

Coastal Water Temperatures

Place Temperature

Stations

Nearby Weather Stations

Station Location Temp. Windchill Dew Point Humidity Wind Precip. Elev Updated Type
                   

Watches & Warnings

Flood Warning
Issued: 10:48 AM CDT Apr. 24, 2018 – National Weather Service

... Flood Warning continues for the Redwood river near Redwood Falls.
* Until Monday morning...
* at 9:30 am Tuesday the stage was 7.8 feet.
* Minor flooding is occurring and minor flooding is forecast to continue.
* Flood stage is 6.0 feet.
* Forecast... the river will continue rising to near 8.3 feet by this
evening. The river will fall below flood stage Monday
morning.
* Impact... at 6.0 feet... low lying areas, mainly farmland, and some
roads along the river begin to experience flooding.


Lat... Lon 4458 9514 4453 9505 4444 9539 4451 9546